Time;durP1;ratioP1;P1;durP2;ratioP2;P2;SDS_P1;SDS_P2;PMS_P1;PMS_P2;Temp;Humidity;BMP_temperature;BMP_pressure;BME280_temperature;BME280_humidity;BME280_pressure;Samples;Min_cycle;Max_cycle;Signal;HPM_P1;HPM_P2
2022/05/12 00:01:08;;;;;;;3.20;1.27;;;15.80;99.90;;;;;;5013775;28;20177;-41
2022/05/12 00:03:35;;;;;;;4.40;1.60;;;15.80;99.90;;;;;;5013608;28;20177;-39
2022/05/12 00:06:01;;;;;;;4.80;1.80;;;15.70;99.90;;;;;;5013900;28;20192;-40
2022/05/12 00:08:27;;;;;;;1.67;1.27;;;15.70;99.90;;;;;;5012326;28;20197;-42
2022/05/12 00:10:54;;;;;;;2.17;1.33;;;15.70;99.90;;;;;;5013586;28;20177;-39
2022/05/12 00:13:19;;;;;;;3.03;1.50;;;15.70;99.90;;;;;;5013768;28;20688;-41
2022/05/12 00:15:48;;;;;;;4.27;1.53;;;15.60;99.90;;;;;;5013752;28;20176;-39
2022/05/12 00:18:14;;;;;;;3.70;1.30;;;15.60;99.90;;;;;;5013741;28;20205;-39
2022/05/12 00:20:41;;;;;;;3.27;1.70;;;15.60;99.90;;;;;;5013846;28;20228;-41
2022/05/12 00:23:15;;;;;;;5.97;1.17;;;15.50;99.90;;;;;;5013496;28;20205;-41
2022/05/12 00:25:43;;;;;;;2.60;1.30;;;15.50;99.90;;;;;;5013517;28;20201;-40
2022/05/12 00:28:08;;;;;;;3.10;1.13;;;15.50;99.90;;;;;;5013662;28;20205;-39
2022/05/12 00:30:35;;;;;;;5.83;1.47;;;15.50;99.90;;;;;;5013605;28;20537;-40
2022/05/12 00:33:01;;;;;;;2.60;1.20;;;15.60;99.90;;;;;;5013492;28;20181;-43
2022/05/12 00:35:27;;;;;;;2.40;1.30;;;15.50;99.90;;;;;;5013310;28;20252;-38
2022/05/12 00:37:52;;;;;;;3.33;1.40;;;15.40;99.90;;;;;;5013186;28;20689;-40
2022/05/12 00:40:18;;;;;;;4.47;1.53;;;15.40;99.90;;;;;;5013550;28;20231;-40
2022/05/12 00:42:58;;;;;;;7.97;1.70;;;15.50;99.90;;;;;;5013515;28;20182;-40
2022/05/12 00:45:25;;;;;;;6.10;1.70;;;15.50;99.90;;;;;;5013819;28;20173;-42
2022/05/12 00:47:50;;;;;;;3.57;1.20;;;15.40;99.90;;;;;;5014246;28;20280;-41
2022/05/12 00:50:18;;;;;;;4.83;1.80;;;15.40;99.90;;;;;;5013205;28;20264;-40
2022/05/12 00:52:44;;;;;;;2.83;2.00;;;15.40;99.90;;;;;;5013484;28;20180;-42
2022/05/12 00:55:15;;;;;;;4.73;2.13;;;15.40;99.90;;;;;;5013626;28;20186;-41
2022/05/12 00:57:45;;;;;;;4.63;1.63;;;15.40;99.90;;;;;;5013060;28;20564;-41
2022/05/12 01:00:13;;;;;;;3.80;1.63;;;15.40;99.90;;;;;;5013691;28;20162;-42
2022/05/12 01:02:41;;;;;;;2.93;1.77;;;15.40;99.90;;;;;;5013197;28;20177;-42
2022/05/12 01:05:08;;;;;;;2.63;1.80;;;15.40;99.90;;;;;;5013493;28;20186;-42
2022/05/12 01:07:35;;;;;;;3.43;2.20;;;15.30;99.90;;;;;;5013469;28;20304;-42
2022/05/12 01:10:03;;;;;;;2.23;1.80;;;15.30;99.90;;;;;;5016575;28;20169;-41
2022/05/12 01:12:30;;;;;;;7.83;1.97;;;15.30;99.90;;;;;;5015744;28;20209;-41
2022/05/12 01:14:56;;;;;;;2.60;1.63;;;15.30;99.90;;;;;;5016949;28;20252;-41
2022/05/12 01:17:24;;;;;;;5.43;2.37;;;15.20;99.90;;;;;;5016692;28;20697;-39
2022/05/12 01:19:51;;;;;;;2.53;1.90;;;15.20;99.90;;;;;;5016746;28;20695;-40
2022/05/12 01:22:35;;;;;;;4.83;2.00;;;15.10;99.90;;;;;;5017013;28;20580;-38
2022/05/12 01:25:01;;;;;;;3.10;2.00;;;15.10;99.90;;;;;;5016535;28;20178;-40
2022/05/12 01:27:29;;;;;;;10.50;2.60;;;15.00;99.90;;;;;;5016906;28;20256;-41
2022/05/12 01:29:57;;;;;;;4.50;1.80;;;15.00;99.90;;;;;;5016822;28;20182;-41
2022/05/12 01:32:25;;;;;;;5.37;2.60;;;14.80;99.90;;;;;;5016381;28;20181;-43
2022/05/12 01:34:54;;;;;;;3.50;2.07;;;14.80;99.90;;;;;;5016315;28;20711;-42
2022/05/12 01:37:21;;;;;;;3.07;1.83;;;14.70;99.90;;;;;;5016621;28;20259;-41
2022/05/12 01:39:47;;;;;;;4.07;2.13;;;14.60;99.90;;;;;;5016174;28;20243;-42
2022/05/12 01:42:13;;;;;;;6.33;2.20;;;14.50;99.90;;;;;;5016519;28;20189;-42
2022/05/12 01:44:40;;;;;;;7.03;2.20;;;14.50;99.90;;;;;;5016490;28;20174;-40
2022/05/12 01:47:06;;;;;;;5.33;1.90;;;14.30;99.90;;;;;;5016409;28;20293;-43
2022/05/12 01:49:33;;;;;;;2.03;1.83;;;14.30;99.90;;;;;;5016925;28;20213;-41
2022/05/12 01:52:00;;;;;;;3.50;1.90;;;14.20;99.90;;;;;;5018265;28;20200;-40
2022/05/12 01:54:28;;;;;;;4.40;1.93;;;14.10;99.90;;;;;;5022013;28;20213;-42
2022/05/12 01:56:54;;;;;;;5.83;2.20;;;14.00;99.90;;;;;;5022817;28;20213;-40
2022/05/12 01:59:20;;;;;;;4.13;1.90;;;14.00;99.90;;;;;;5022572;28;20185;-45
2022/05/12 02:01:47;;;;;;;3.23;2.13;;;13.90;99.90;;;;;;5020662;28;20542;-46
2022/05/12 02:04:13;;;;;;;2.37;1.53;;;13.80;99.90;;;;;;5020041;28;20178;-46
2022/05/12 02:06:38;;;;;;;4.43;2.10;;;13.80;99.90;;;;;;5019550;28;20645;-45
2022/05/12 02:09:05;;;;;;;2.33;2.13;;;13.70;99.90;;;;;;5019098;28;20188;-44
2022/05/12 02:11:31;;;;;;;5.33;2.43;;;13.60;99.90;;;;;;5019168;28;20646;-47
2022/05/12 02:13:57;;;;;;;9.73;2.40;;;13.60;99.90;;;;;;5019659;28;20260;-46
2022/05/12 02:16:24;;;;;;;3.13;1.97;;;13.60;99.90;;;;;;5018673;28;20240;-46
2022/05/12 02:18:51;;;;;;;4.10;2.80;;;13.50;99.90;;;;;;5018253;28;20189;-46
2022/05/12 02:21:17;;;;;;;5.90;2.50;;;13.40;99.90;;;;;;5020390;28;20185;-44
2022/05/12 02:23:43;;;;;;;6.87;2.20;;;13.40;99.90;;;;;;5020605;28;20178;-44
2022/05/12 02:26:09;;;;;;;3.90;2.37;;;13.30;99.90;;;;;;5020115;28;20246;-44
2022/05/12 02:28:35;;;;;;;3.30;2.10;;;13.20;99.90;;;;;;5020349;28;20205;-44
2022/05/12 02:31:01;;;;;;;3.67;2.10;;;13.20;99.90;;;;;;5020670;28;20181;-45
2022/05/12 02:33:26;;;;;;;4.27;2.13;;;13.10;99.90;;;;;;5020148;28;20664;-44
2022/05/12 02:35:52;;;;;;;4.63;2.17;;;13.00;99.90;;;;;;5016055;28;20184;-42
2022/05/12 02:38:18;;;;;;;7.13;4.80;;;13.00;99.90;;;;;;5015272;28;20671;-44
2022/05/12 02:40:43;;;;;;;9.50;5.40;;;13.00;99.90;;;;;;5015079;28;20178;-42
2022/05/12 02:43:24;;;;;;;6.33;2.70;;;13.00;99.90;;;;;;5015524;28;20178;-43
2022/05/12 02:46:05;;;;;;;8.87;5.40;;;12.90;99.90;;;;;;5015218;28;20153;-42
2022/05/12 02:48:35;;;;;;;7.90;6.80;;;12.80;99.90;;;;;;5015094;28;20203;-43
2022/05/12 02:51:00;;;;;;;12.13;9.13;;;12.70;99.90;;;;;;5014967;28;20213;-42
2022/05/12 02:53:27;;;;;;;9.53;5.97;;;12.70;99.90;;;;;;5015072;28;20279;-42
2022/05/12 02:55:53;;;;;;;9.33;6.87;;;12.70;99.90;;;;;;5016429;28;20264;-44
2022/05/12 02:58:19;;;;;;;19.17;10.93;;;12.60;99.90;;;;;;5017675;28;20274;-44
2022/05/12 03:00:46;;;;;;;13.97;8.80;;;12.60;99.90;;;;;;5016972;28;20181;-44
2022/05/12 03:03:12;;;;;;;9.90;5.93;;;12.50;99.90;;;;;;5014617;28;20168;-44
2022/05/12 03:05:39;;;;;;;8.33;4.90;;;12.50;99.90;;;;;;5014604;28;20260;-42
2022/05/12 03:08:06;;;;;;;11.50;6.97;;;12.40;99.90;;;;;;5014533;28;20231;-41
2022/05/12 03:10:33;;;;;;;14.13;10.13;;;12.40;99.90;;;;;;5014387;28;20186;-41
2022/05/12 03:12:58;;;;;;;7.27;3.70;;;12.30;99.90;;;;;;5014481;28;20273;-40
2022/05/12 03:15:24;;;;;;;7.77;4.20;;;12.30;99.90;;;;;;5014374;28;20296;-44
2022/05/12 03:17:50;;;;;;;7.10;5.30;;;12.20;99.90;;;;;;5014839;28;20548;-39
2022/05/12 03:20:18;;;;;;;8.43;5.80;;;12.20;99.90;;;;;;5014369;28;20659;-41
2022/05/12 03:22:44;;;;;;;6.43;4.50;;;12.10;99.90;;;;;;5013154;28;20265;-38
2022/05/12 03:25:12;;;;;;;9.60;6.17;;;12.10;99.90;;;;;;5014300;28;20224;-40
2022/05/12 03:27:39;;;;;;;8.20;4.47;;;12.10;99.90;;;;;;5014256;28;20561;-42
2022/05/12 03:30:07;;;;;;;11.30;7.47;;;12.00;99.90;;;;;;5014342;28;20584;-43
2022/05/12 03:32:33;;;;;;;15.73;11.93;;;12.00;99.90;;;;;;5013582;28;20181;-41
2022/05/12 03:34:59;;;;;;;9.23;6.40;;;12.00;99.90;;;;;;5014379;28;20185;-40
2022/05/12 03:37:25;;;;;;;8.23;4.50;;;12.00;99.90;;;;;;5014564;28;20741;-42
2022/05/12 03:39:50;;;;;;;6.17;2.53;;;11.90;99.90;;;;;;5014443;28;20173;-42
2022/05/12 03:42:18;;;;;;;5.40;2.50;;;11.90;99.90;;;;;;5014041;28;20296;-42
2022/05/12 03:44:49;;;;;;;6.80;2.53;;;11.90;99.90;;;;;;5013989;28;20202;-40
2022/05/12 03:47:22;;;;;;;3.67;2.43;;;11.80;99.90;;;;;;5014211;28;20202;-42
2022/05/12 03:50:10;;;;;;;3.77;2.43;;;11.80;99.90;;;;;;5014040;28;20535;-41
2022/05/12 03:52:37;;;;;;;3.87;2.40;;;11.70;99.90;;;;;;5012808;28;20173;-44
2022/05/12 03:55:05;;;;;;;4.23;2.60;;;11.70;99.90;;;;;;5013928;28;20170;-42
2022/05/12 03:57:31;;;;;;;6.13;2.33;;;11.70;99.90;;;;;;5014507;28;20336;-41
2022/05/12 03:59:56;;;;;;;3.27;2.50;;;11.60;99.90;;;;;;5013979;28;20595;-41
2022/05/12 04:02:22;;;;;;;4.27;2.20;;;11.60;99.90;;;;;;5013887;28;20249;-40
2022/05/12 04:04:49;;;;;;;2.90;2.10;;;11.50;99.90;;;;;;5014373;28;20175;-38
2022/05/12 04:07:18;;;;;;;5.37;2.30;;;11.50;99.90;;;;;;5013782;28;20546;-40
2022/05/12 04:09:43;;;;;;;2.73;1.83;;;11.50;99.90;;;;;;5013942;28;20189;-39
2022/05/12 04:12:10;;;;;;;3.13;2.07;;;11.40;99.90;;;;;;5013642;28;20192;-42
2022/05/12 04:14:40;;;;;;;3.53;2.00;;;11.40;99.90;;;;;;5013687;28;20209;-43
2022/05/12 04:17:08;;;;;;;6.50;2.10;;;11.40;99.90;;;;;;5013869;28;20234;-42
2022/05/12 04:19:33;;;;;;;4.10;1.97;;;11.30;99.90;;;;;;5013937;28;20169;-40
2022/05/12 04:21:59;;;;;;;4.17;2.07;;;11.30;99.90;;;;;;5013598;28;20177;-41
2022/05/12 04:24:24;;;;;;;5.53;2.17;;;11.30;99.90;;;;;;5013881;28;20189;-40
2022/05/12 04:26:50;;;;;;;4.13;2.07;;;11.30;99.90;;;;;;5013969;28;20201;-41
2022/05/12 04:29:17;;;;;;;3.50;2.20;;;11.30;99.90;;;;;;5015839;28;20185;-45
2022/05/12 04:31:42;;;;;;;5.63;2.47;;;11.40;99.90;;;;;;5018047;28;20689;-47
2022/05/12 04:36:53;;;;;;;3.63;2.27;;;11.40;99.90;;;;;;5018132;28;20294;-46
2022/05/12 04:39:19;;;;;;;4.87;2.30;;;11.50;99.90;;;;;;5017712;28;20192;-46
2022/05/12 04:41:45;;;;;;;4.47;2.33;;;11.60;99.90;;;;;;5017201;28;20177;-45
2022/05/12 04:44:13;;;;;;;2.50;1.87;;;11.60;99.90;;;;;;5019370;28;20209;-44
2022/05/12 04:46:40;;;;;;;3.27;2.00;;;11.60;99.90;;;;;;5021334;28;20174;-45
2022/05/12 04:49:06;;;;;;;4.17;1.77;;;11.60;99.90;;;;;;5021358;28;20251;-46
2022/05/12 04:51:32;;;;;;;5.83;2.67;;;11.60;99.90;;;;;;5021718;28;20216;-47
2022/05/12 04:53:59;;;;;;;5.10;2.77;;;11.70;99.90;;;;;;5022308;28;20188;-45
2022/05/12 04:56:25;;;;;;;6.67;2.90;;;11.70;99.90;;;;;;5020855;28;20278;-46
2022/05/12 04:58:51;;;;;;;5.77;2.13;;;11.80;99.90;;;;;;5021194;28;20194;-45
2022/05/12 05:01:17;;;;;;;6.40;2.57;;;11.90;99.90;;;;;;5021576;28;20199;-44
2022/05/12 05:03:42;;;;;;;5.47;2.73;;;11.90;99.90;;;;;;5021014;28;20234;-45
2022/05/12 05:06:08;;;;;;;5.93;2.50;;;11.90;99.90;;;;;;5020782;28;20180;-45
2022/05/12 05:08:34;;;;;;;8.20;3.00;;;11.90;99.90;;;;;;5021182;28;20206;-45
2022/05/12 05:11:00;;;;;;;3.97;2.90;;;12.00;99.90;;;;;;5021090;28;20192;-45
2022/05/12 05:13:26;;;;;;;5.00;2.67;;;12.00;99.90;;;;;;5020942;28;20193;-47
2022/05/12 05:15:53;;;;;;;4.27;2.93;;;12.00;99.90;;;;;;5020884;28;20638;-46
2022/05/12 05:18:21;;;;;;;6.50;3.30;;;12.00;99.90;;;;;;5021243;28;20595;-46
2022/05/12 05:20:46;;;;;;;6.23;3.20;;;12.10;99.90;;;;;;5021372;28;20170;-44
2022/05/12 05:23:15;;;;;;;4.43;3.53;;;12.10;99.90;;;;;;5021243;28;20660;-44
2022/05/12 05:25:41;;;;;;;7.70;3.90;;;12.20;99.90;;;;;;5021571;28;20169;-42
2022/05/12 05:28:09;;;;;;;8.70;5.20;;;12.30;99.90;;;;;;5021773;28;20279;-44
2022/05/12 05:30:34;;;;;;;8.30;5.00;;;12.40;99.90;;;;;;5022068;28;20205;-44
2022/05/12 05:33:00;;;;;;;9.73;5.43;;;12.50;99.90;;;;;;5021512;28;20666;-44
2022/05/12 05:35:26;;;;;;;10.07;5.27;;;12.60;99.90;;;;;;5022838;28;20207;-45
2022/05/12 05:37:53;;;;;;;10.53;6.20;;;12.70;99.90;;;;;;5022249;28;20244;-45
2022/05/12 05:40:22;;;;;;;8.03;6.00;;;12.80;99.90;;;;;;5020769;28;20516;-44
2022/05/12 05:42:48;;;;;;;13.80;6.77;;;12.90;99.90;;;;;;5022802;28;20170;-46
2022/05/12 05:45:17;;;;;;;11.07;6.60;;;13.00;99.90;;;;;;5022578;28;20178;-45
2022/05/12 05:47:45;;;;;;;11.73;7.27;;;13.10;99.90;;;;;;5021349;28;20197;-46
2022/05/12 05:50:12;;;;;;;13.07;8.00;;;13.30;99.90;;;;;;5019816;28;20182;-43
2022/05/12 05:55:22;;;;;;;14.10;8.07;;;13.50;99.90;;;;;;5020568;28;20188;-45
2022/05/12 05:57:48;;;;;;;16.83;8.83;;;13.60;99.90;;;;;;5020985;28;20210;-46
2022/05/12 06:00:15;;;;;;;13.97;8.07;;;13.70;99.90;;;;;;5021168;28;20185;-43
2022/05/12 06:02:41;;;;;;;12.77;8.50;;;13.80;99.90;;;;;;5019433;28;20548;-47
2022/05/12 06:05:07;;;;;;;16.57;7.80;;;13.90;99.90;;;;;;5019924;28;20174;-47
2022/05/12 06:07:38;;;;;;;12.13;8.67;;;14.00;99.90;;;;;;5019358;28;20205;-46
2022/05/12 06:10:06;;;;;;;11.63;7.83;;;14.10;99.90;;;;;;5020494;28;20189;-45
2022/05/12 06:12:33;;;;;;;15.67;9.13;;;14.20;99.90;;;;;;5019154;28;20300;-46
2022/05/12 06:14:59;;;;;;;14.60;8.87;;;14.30;99.90;;;;;;5020018;28;20703;-45
2022/05/12 06:17:26;;;;;;;14.60;9.17;;;14.50;99.90;;;;;;5019621;28;20221;-45
2022/05/12 06:19:51;;;;;;;17.67;9.70;;;14.80;99.90;;;;;;5018929;28;20169;-43
2022/05/12 06:22:21;;;;;;;12.23;8.63;;;15.00;99.90;;;;;;5019741;28;20730;-44
2022/05/12 06:24:47;;;;;;;13.97;8.90;;;15.10;99.90;;;;;;5018584;28;20201;-45
2022/05/12 06:27:14;;;;;;;16.73;9.23;;;15.30;99.90;;;;;;5019182;28;20212;-45
2022/05/12 06:29:44;;;;;;;14.53;9.17;;;15.40;99.90;;;;;;5019157;28;20181;-45
2022/05/12 06:32:11;;;;;;;15.87;9.43;;;15.70;99.90;;;;;;5019111;28;20204;-43
2022/05/12 06:34:37;;;;;;;16.43;9.80;;;15.80;99.90;;;;;;5018866;28;20240;-43
2022/05/12 06:37:04;;;;;;;15.40;9.27;;;16.00;99.90;;;;;;5019084;28;20217;-45
2022/05/12 06:39:30;;;;;;;15.57;9.23;;;16.10;99.90;;;;;;5018726;28;20173;-45
2022/05/12 06:41:56;;;;;;;12.93;8.63;;;16.20;99.90;;;;;;5017477;28;20519;-45
2022/05/12 06:44:22;;;;;;;16.37;8.37;;;16.50;99.90;;;;;;5019264;28;20227;-45
2022/05/12 06:46:48;;;;;;;14.37;9.17;;;16.60;99.90;;;;;;5019409;28;20206;-44
2022/05/12 06:49:14;;;;;;;14.53;8.60;;;16.70;99.90;;;;;;5017111;28;20217;-45
2022/05/12 06:51:40;;;;;;;14.70;9.07;;;16.80;99.90;;;;;;5017120;28;20650;-44
2022/05/12 06:54:05;;;;;;;11.30;8.27;;;16.90;99.90;;;;;;5018253;28;20187;-45
2022/05/12 06:56:31;;;;;;;10.23;7.67;;;17.10;99.90;;;;;;5017426;28;20205;-44
2022/05/12 06:58:57;;;;;;;15.90;7.93;;;17.30;99.90;;;;;;5017666;28;20613;-47
2022/05/12 07:01:24;;;;;;;13.13;8.00;;;17.40;99.90;;;;;;5016803;28;20181;-45
2022/05/12 07:03:50;;;;;;;11.63;7.50;;;17.50;99.90;;;;;;5015415;28;20205;-45
2022/05/12 07:06:16;;;;;;;13.43;8.20;;;17.60;99.90;;;;;;5015262;28;20178;-46
2022/05/12 07:08:43;;;;;;;11.80;8.30;;;17.60;99.90;;;;;;5016106;28;20189;-45
2022/05/12 07:11:12;;;;;;;14.43;7.87;;;17.70;99.90;;;;;;5016162;28;20173;-45
2022/05/12 07:13:38;;;;;;;13.47;7.00;;;17.80;99.90;;;;;;5016618;28;20229;-47
2022/05/12 07:16:05;;;;;;;13.40;8.13;;;17.90;99.90;;;;;;5016800;28;20174;-47
2022/05/12 07:18:31;;;;;;;12.33;7.40;;;18.00;99.90;;;;;;5016763;28;20255;-47
2022/05/12 07:26:40;;;;;;;11.63;7.40;;;18.40;99.90;;;;;;5016814;28;20169;-46
2022/05/12 07:29:14;;;;;;;11.00;7.07;;;18.50;99.90;;;;;;5017171;28;20170;-45
2022/05/12 07:31:41;;;;;;;10.40;7.23;;;18.60;99.90;;;;;;5016491;28;20246;-47
2022/05/12 07:34:07;;;;;;;14.57;7.80;;;18.70;99.90;;;;;;5015344;28;20185;-45
2022/05/12 07:36:37;;;;;;;11.73;6.87;;;18.80;99.90;;;;;;5015608;28;20263;-45
2022/05/12 07:39:04;;;;;;;10.33;7.40;;;18.90;99.90;;;;;;5015383;28;20232;-45
2022/05/12 07:41:30;;;;;;;10.27;7.03;;;18.90;99.90;;;;;;5013287;28;20177;-45
2022/05/12 07:43:56;;;;;;;11.20;7.90;;;18.90;99.90;;;;;;5014468;28;20638;-45
2022/05/12 07:46:25;;;;;;;8.77;7.17;;;19.10;99.90;;;;;;5014638;28;20531;-43
2022/05/12 07:48:51;;;;;;;12.53;7.63;;;19.10;99.90;;;;;;5014831;28;20560;-42
2022/05/12 07:51:18;;;;;;;10.43;7.10;;;19.20;99.90;;;;;;5014350;28;20177;-43
2022/05/12 07:53:47;;;;;;;10.13;7.10;;;19.20;99.90;;;;;;5014042;28;20185;-45
2022/05/12 07:56:19;;;;;;;10.43;6.40;;;19.10;99.90;;;;;;5013908;28;20257;-45
2022/05/12 07:58:46;;;;;;;7.77;5.93;;;19.00;99.90;;;;;;5014370;28;20201;-45
2022/05/12 08:01:12;;;;;;;7.43;5.33;;;18.90;99.90;;;;;;5014060;28;20205;-45
2022/05/12 08:03:39;;;;;;;9.67;5.00;;;19.00;99.90;;;;;;5014040;28;20178;-46
2022/05/12 08:06:07;;;;;;;6.77;4.53;;;19.00;99.90;;;;;;5014049;28;20188;-44
2022/05/12 08:08:34;;;;;;;6.93;4.40;;;19.20;99.90;;;;;;5013544;28;20589;-43
2022/05/12 08:11:00;;;;;;;7.40;4.73;;;19.20;99.90;;;;;;5014176;28;20201;-45
2022/05/12 08:13:26;;;;;;;9.00;4.63;;;19.20;99.90;;;;;;5013963;28;20220;-44
2022/05/12 08:15:53;;;;;;;8.37;4.10;;;19.20;99.90;;;;;;5013916;28;20213;-44
2022/05/12 08:18:21;;;;;;;5.70;2.80;;;19.30;99.90;;;;;;5013389;28;20201;-44
2022/05/12 08:20:47;;;;;;;5.37;2.70;;;19.50;99.90;;;;;;5013552;28;20188;-43
2022/05/12 08:23:13;;;;;;;6.83;3.60;;;19.50;99.90;;;;;;5013553;28;20239;-43
2022/05/12 08:25:40;;;;;;;6.83;2.90;;;19.60;99.90;;;;;;5013560;28;20178;-46
2022/05/12 08:28:06;;;;;;;3.80;3.10;;;19.70;99.90;;;;;;5013440;28;20206;-44
2022/05/12 08:30:32;;;;;;;4.50;2.73;;;19.90;99.90;;;;;;5013713;28;20240;-46
2022/05/12 08:32:59;;;;;;;6.97;3.03;;;20.00;99.90;;;;;;5012163;28;20185;-44
2022/05/12 08:35:26;;;;;;;3.40;2.10;;;20.20;99.90;;;;;;5013624;28;20185;-43
2022/05/12 08:37:52;;;;;;;5.33;2.10;;;20.30;99.90;;;;;;5013990;28;20248;-45
2022/05/12 08:40:37;;;;;;;4.60;2.53;;;20.30;99.90;;;;;;5013421;28;20284;-47
2022/05/12 08:43:13;;;;;;;4.40;2.67;;;20.40;99.90;;;;;;5013483;28;20174;-44
2022/05/12 08:45:39;;;;;;;5.10;2.80;;;20.20;99.90;;;;;;5013853;28;20169;-45
2022/05/12 08:48:05;;;;;;;4.13;2.30;;;20.20;99.90;;;;;;5013388;28;20194;-45
2022/05/12 08:50:33;;;;;;;5.53;2.43;;;20.30;99.90;;;;;;5012205;28;20223;-44
2022/05/12 08:53:01;;;;;;;5.10;2.40;;;20.40;99.90;;;;;;5012386;28;20536;-47
2022/05/12 08:56:02;;;;;;;2.60;2.00;;;20.60;99.90;;;;;;5013495;28;20178;-45
2022/05/12 08:58:40;;;;;;;4.30;2.17;;;20.90;99.90;;;;;;4991505;28;20619;-44
2022/05/12 09:01:20;;;;;;;5.03;2.20;;;20.80;99.90;;;;;;5023495;28;20200;-44
2022/05/12 09:04:11;;;;;;;3.40;1.70;;;20.60;99.90;;;;;;5013418;28;20173;-45
2022/05/12 09:06:54;;;;;;;3.43;2.20;;;20.50;99.90;;;;;;5013520;28;20182;-45
2022/05/12 09:09:39;;;;;;;2.97;1.97;;;20.30;99.90;;;;;;5013520;28;20170;-47
2022/05/12 09:12:46;;;;;;;4.03;2.20;;;20.20;99.90;;;;;;5013508;28;20169;-44
2022/05/12 09:15:24;;;;;;;4.73;2.10;;;20.20;99.90;;;;;;4991649;28;20619;-45
2022/05/12 09:17:56;;;;;;;4.53;2.30;;;20.20;99.90;;;;;;5010675;28;20232;-45
2022/05/12 09:20:23;;;;;;;2.60;1.60;;;20.20;99.90;;;;;;5013394;28;20208;-44
2022/05/12 09:22:49;;;;;;;3.83;1.93;;;20.20;99.90;;;;;;5013079;28;20201;-43
2022/05/12 09:25:40;;;;;;;5.37;1.83;;;20.30;99.90;;;;;;5013020;28;20178;-44
2022/05/12 09:28:27;;;;;;;5.03;2.20;;;20.40;99.90;;;;;;5013157;28;20201;-45
2022/05/12 09:30:55;;;;;;;2.77;1.70;;;20.60;99.90;;;;;;5016100;28;20234;-43
2022/05/12 09:33:36;;;;;;;5.10;1.77;;;20.80;99.90;;;;;;5016571;28;20173;-45
2022/05/12 09:36:14;;;;;;;4.07;1.53;;;20.80;99.90;;;;;;5016595;28;20185;-47
2022/05/12 09:38:44;;;;;;;2.63;1.30;;;20.90;99.90;;;;;;5015095;28;20193;-44
2022/05/12 09:41:17;;;;;;;4.00;1.73;;;21.10;99.90;;;;;;5016382;28;20212;-46
2022/05/12 09:43:44;;;;;;;2.87;1.50;;;21.30;99.90;;;;;;5016755;28;20178;-43
2022/05/12 09:46:16;;;;;;;6.47;2.00;;;21.40;99.90;;;;;;5016248;28;20265;-43
2022/05/12 09:48:42;;;;;;;3.87;2.10;;;21.50;99.90;;;;;;5016071;28;20197;-43
2022/05/12 09:51:19;;;;;;;2.17;1.83;;;21.50;99.90;;;;;;5016562;28;20684;-45
2022/05/12 09:53:45;;;;;;;2.57;1.70;;;21.40;99.90;;;;;;5016120;28;20654;-45
2022/05/12 09:56:27;;;;;;;3.57;2.10;;;21.60;99.90;;;;;;5015925;28;20177;-44
2022/05/12 09:59:07;;;;;;;3.40;1.70;;;21.60;99.90;;;;;;5016042;28;20575;-46
2022/05/12 10:01:35;;;;;;;6.13;2.70;;;21.70;99.90;;;;;;5016280;28;20173;-45
2022/05/12 10:10:18;;;;;;;4.90;1.90;;;21.60;99.90;;;;;;5016224;28;20554;-44
2022/05/12 10:12:54;;;;;;;6.13;2.07;;;21.60;99.90;;;;;;5015688;28;20176;-45
2022/05/12 10:15:30;;;;;;;3.27;1.90;;;21.40;99.90;;;;;;5014486;28;20197;-44
2022/05/12 10:18:16;;;;;;;3.90;2.20;;;21.20;99.90;;;;;;5015846;28;20219;-46
2022/05/12 10:20:46;;;;;;;3.33;2.27;;;21.00;99.90;;;;;;5015961;28;20166;-44
2022/05/12 10:23:27;;;;;;;3.27;1.87;;;21.00;99.90;;;;;;5015660;28;20571;-44
2022/05/12 10:26:23;;;;;;;3.50;1.93;;;21.00;99.90;;;;;;5015445;28;20290;-46
2022/05/12 10:29:00;;;;;;;4.33;2.20;;;21.10;99.90;;;;;;5015664;28;20654;-47
2022/05/12 10:31:33;;;;;;;2.73;1.80;;;21.20;99.90;;;;;;5015754;28;20257;-45
2022/05/12 10:34:34;;;;;;;4.23;1.57;;;21.30;99.90;;;;;;5015682;28;20165;-44
2022/05/12 10:37:08;;;;;;;2.70;1.50;;;21.50;99.90;;;;;;5015426;28;20213;-46
2022/05/12 10:39:52;;;;;;;3.53;1.53;;;21.60;99.90;;;;;;5015592;28;20165;-44
2022/05/12 10:42:49;;;;;;;2.93;1.70;;;21.50;99.90;;;;;;5015414;28;20170;-44
2022/05/12 10:45:27;;;;;;;3.97;2.00;;;21.70;99.90;;;;;;5014684;28;20184;-47
2022/05/12 10:48:17;;;;;;;4.53;1.80;;;21.70;99.90;;;;;;5015282;28;20593;-46
2022/05/12 10:51:02;;;;;;;4.27;2.20;;;21.80;99.90;;;;;;5015352;28;20537;-45
2022/05/12 10:53:56;;;;;;;4.83;2.00;;;21.80;99.90;;;;;;5015247;28;20177;-45
2022/05/12 10:56:45;;;;;;;4.40;1.80;;;21.80;99.90;;;;;;5015061;28;20181;-45
2022/05/12 10:59:17;;;;;;;5.20;1.30;;;21.60;99.90;;;;;;5015046;28;20258;-46
2022/05/12 11:01:57;;;;;;;3.10;1.43;;;21.70;99.90;;;;;;5013552;28;20165;-46
2022/05/12 11:04:36;;;;;;;3.10;1.50;;;21.80;99.90;;;;;;5014843;28;20215;-44
2022/05/12 11:07:08;;;;;;;2.87;1.23;;;21.90;99.90;;;;;;5015002;28;20692;-45
2022/05/12 11:09:43;;;;;;;3.23;1.77;;;22.00;99.90;;;;;;5015013;28;20205;-46
2022/05/12 11:12:28;;;;;;;5.03;1.60;;;22.20;99.90;;;;;;5015472;28;20227;-46
2022/05/12 11:15:00;;;;;;;3.23;1.53;;;22.30;99.90;;;;;;5014827;28;20287;-44
2022/05/12 11:17:48;;;;;;;6.47;2.03;;;22.40;99.90;;;;;;5013410;28;20779;-46
2022/05/12 11:20:25;;;;;;;2.03;1.50;;;22.30;99.90;;;;;;5013591;28;20173;-45
2022/05/12 11:23:15;;;;;;;4.33;1.57;;;21.90;99.90;;;;;;5014864;28;20173;-43
2022/05/12 11:26:18;;;;;;;2.13;1.40;;;21.90;99.90;;;;;;5014563;28;20170;-45
2022/05/12 11:32:13;;;;;;;2.57;1.43;;;21.50;99.90;;;;;;5014743;28;20690;-44
2022/05/12 11:34:40;;;;;;;2.60;1.67;;;21.50;99.90;;;;;;5014833;28;20166;-46
2022/05/12 11:37:27;;;;;;;3.63;1.70;;;21.60;99.90;;;;;;5014463;28;20209;-47
2022/05/12 11:39:55;;;;;;;4.80;2.20;;;21.60;99.90;;;;;;5014543;28;20204;-47
2022/05/12 11:42:25;;;;;;;3.43;2.10;;;21.70;99.90;;;;;;5015619;28;20174;-47
2022/05/12 11:44:56;;;;;;;6.93;1.93;;;21.90;99.90;;;;;;5019265;28;20169;-44
2022/05/12 11:47:31;;;;;;;4.93;2.10;;;22.00;99.90;;;;;;5019148;28;20208;-46
2022/05/12 11:50:00;;;;;;;3.97;2.33;;;22.20;99.90;;;;;;5019308;28;20691;-47
2022/05/12 11:52:59;;;;;;;3.90;2.07;;;22.20;99.90;;;;;;5019360;28;20707;-47
2022/05/12 11:55:24;;;;;;;4.77;2.00;;;22.10;99.90;;;;;;5019036;28;20177;-46
2022/05/12 11:58:03;;;;;;;3.37;1.77;;;21.90;99.90;;;;;;5019071;28;20218;-47
2022/05/12 12:00:34;;;;;;;4.87;1.93;;;21.90;99.90;;;;;;5018966;28;20176;-47
2022/05/12 12:03:19;;;;;;;3.33;1.97;;;22.20;99.90;;;;;;5018778;28;20205;-47
2022/05/12 12:05:48;;;;;;;3.93;2.30;;;22.50;99.90;;;;;;5018939;28;20186;-47
2022/05/12 12:08:41;;;;;;;4.47;1.97;;;22.70;99.90;;;;;;5019058;28;20201;-47
2022/05/12 12:11:13;;;;;;;5.43;1.90;;;22.70;99.90;;;;;;5017060;28;20526;-47
2022/05/12 12:13:40;;;;;;;4.53;2.40;;;22.70;99.90;;;;;;5018263;28;20192;-47
2022/05/12 12:16:21;;;;;;;4.07;2.10;;;22.80;99.90;;;;;;5018827;28;20184;-45
2022/05/12 12:18:50;;;;;;;5.93;2.47;;;22.90;99.90;;;;;;5018205;28;20201;-46
2022/05/12 12:21:42;;;;;;;4.20;1.63;;;23.10;99.90;;;;;;5018716;28;20174;-48
2022/05/12 12:24:20;;;;;;;4.20;2.00;;;23.10;99.90;;;;;;5018442;28;20249;-48
2022/05/12 12:26:50;;;;;;;5.50;2.23;;;23.00;99.90;;;;;;5018455;28;20212;-47
2022/05/12 12:29:20;;;;;;;6.23;2.50;;;23.00;99.90;;;;;;5018823;28;20650;-46
2022/05/12 12:31:48;;;;;;;7.13;2.50;;;23.10;99.90;;;;;;5018800;28;20224;-46
2022/05/12 12:34:22;;;;;;;4.00;2.03;;;23.00;99.90;;;;;;5019006;28;20228;-48
2022/05/12 12:37:03;;;;;;;3.60;2.00;;;22.90;99.90;;;;;;5018900;28;20209;-46
2022/05/12 12:39:40;;;;;;;3.13;2.10;;;22.80;99.90;;;;;;5018908;28;20227;-46
2022/05/12 12:42:28;;;;;;;4.83;2.40;;;22.60;99.90;;;;;;5018584;28;20188;-47
2022/05/12 12:45:02;;;;;;;3.40;2.20;;;22.70;99.90;;;;;;5018280;28;20213;-47
2022/05/12 12:47:43;;;;;;;4.37;2.20;;;22.80;99.90;;;;;;5016965;28;20201;-46
2022/05/12 12:50:21;;;;;;;4.60;2.53;;;22.90;99.90;;;;;;5018109;28;20176;-47
2022/05/12 12:52:50;;;;;;;3.53;2.20;;;22.90;99.90;;;;;;5017817;28;20174;-47
2022/05/12 12:58:25;;;;;;;5.07;2.87;;;23.10;99.90;;;;;;5017978;28;20216;-47
2022/05/12 13:01:00;;;;;;;4.70;2.37;;;23.40;99.90;;;;;;5018142;28;20162;-47
2022/05/12 13:03:32;;;;;;;5.53;2.40;;;23.50;99.90;;;;;;5017999;28;20177;-46
2022/05/12 13:06:16;;;;;;;4.60;2.27;;;23.40;99.90;;;;;;5021293;28;20255;-46
2022/05/12 13:08:43;;;;;;;6.57;2.03;;;23.30;99.90;;;;;;5020977;28;20544;-47
2022/05/12 13:11:20;;;;;;;2.87;2.10;;;23.30;99.90;;;;;;5020737;28;20208;-46
2022/05/12 13:13:51;;;;;;;4.67;2.13;;;23.40;99.90;;;;;;5020593;28;20554;-45
2022/05/12 13:16:20;;;;;;;3.43;2.00;;;23.60;99.90;;;;;;5020487;28;20177;-46
2022/05/12 13:18:50;;;;;;;4.47;2.03;;;23.80;99.90;;;;;;5019723;28;20200;-46
2022/05/12 13:21:23;;;;;;;2.30;1.90;;;23.90;99.90;;;;;;5020971;28;20213;-46
2022/05/12 13:24:09;;;;;;;2.80;1.63;;;23.90;99.90;;;;;;5020956;28;20261;-45
2022/05/12 13:26:36;;;;;;;3.13;2.00;;;23.90;99.90;;;;;;5020408;28;20624;-45